Search for airport 
image banner adimage banner adimage banner ad
image banner ad

N58 - Tiger Fld

Located in Fernley, United States

ICAO - N58, IATA -

Data provided by Airmate  

General information

Coordinates: N39°33'35" W119°14'34"
Elevation is 4346 feet MSL.
Magnetic variation is 16° East
View others Airports in Nevada

Operational data

Special qualification required
Current time UTC:
Current local time:
Weather at : KRNO - Reno/Tahoe Intl ( 46 km )
METAR: KRNO 130155Z 30016G20KT 10SM FEW060 FEW160 28/02 A2995 RMK AO2 SLP088 T02830022
TAF: KRNO 122320Z 1300/1324 28014G24KT P6SM FEW100 FM130600 VRB04KT P6SM SKC FM131800 21009KT P6SM SKC FM132100 27014G24KT P6SM FEW100
View NOTAMs / SUP AIP / TFR affecting this airport [VIEW]
Communications frequencies: [VIEW]

Runways:

RWY identifierQFULength (ft)Width (ft)SurfaceLDA (ft)
0565°275030OTHER
23246°275030OTHER
15163°397440ASPH
33343°397440ASPH

Airport contact information

Address: Fernley United States

Satellite view of N58